createdAt,value
2023-01-02T00:01:26.791Z,3.17
2023-01-02T00:03:55.426Z,2.30
2023-01-02T00:06:24.788Z,2.57
2023-01-02T00:13:58.321Z,2.83
2023-01-02T00:16:33.492Z,3.00
2023-01-02T00:19:01.419Z,3.20
2023-01-02T00:21:28.852Z,2.30
2023-01-02T00:23:56.700Z,2.70
2023-01-02T00:26:23.893Z,2.33
2023-01-02T00:28:52.889Z,2.97
2023-01-02T00:34:00.661Z,2.20
2023-01-02T00:36:28.108Z,3.00
2023-01-02T00:38:56.274Z,2.50
2023-01-02T00:41:24.720Z,3.07
2023-01-02T00:43:52.578Z,2.53
2023-01-02T00:46:20.410Z,3.60
2023-01-02T00:48:48.454Z,3.10
2023-01-02T00:51:16.679Z,3.97
2023-01-02T00:59:20.630Z,3.03
2023-01-02T01:01:49.326Z,2.33
2023-01-02T01:04:17.269Z,3.10
2023-01-02T01:06:45.544Z,2.30
2023-01-02T01:09:14.032Z,3.17
2023-01-02T01:11:42.610Z,3.47
2023-01-02T01:14:09.783Z,3.40
2023-01-02T01:16:38.549Z,2.10
2023-01-02T01:24:12.398Z,2.93
2023-01-02T01:26:40.075Z,2.00
2023-01-02T01:29:19.688Z,1.93
2023-01-02T01:31:52.245Z,2.50
2023-01-02T01:34:25.181Z,2.10
2023-01-02T01:36:52.857Z,2.63
2023-01-02T01:39:21.367Z,2.40
2023-01-02T01:44:45.417Z,2.80
2023-01-02T01:47:23.771Z,2.30
2023-01-02T01:49:58.602Z,2.33
2023-01-02T01:52:32.189Z,2.60
2023-01-02T01:55:03.760Z,3.20
2023-01-02T01:57:35.930Z,2.57
2023-01-02T02:00:05.783Z,2.33
2023-01-02T02:07:48.618Z,2.40
2023-01-02T02:10:15.916Z,1.93
2023-01-02T02:12:43.216Z,2.57
2023-01-02T02:15:29.508Z,2.40
2023-01-02T02:18:10.179Z,2.53
2023-01-02T02:20:51.159Z,2.20
2023-01-02T02:27:01.640Z,3.03
2023-01-02T02:30:08.380Z,2.13
2023-01-02T02:33:08.880Z,3.00
2023-01-02T02:35:48.643Z,1.93
2023-01-02T02:38:33.068Z,2.20
2023-01-02T02:41:25.049Z,2.03
2023-01-02T02:44:08.946Z,2.10
2023-01-02T02:46:46.350Z,1.93
2023-01-02T02:54:28.738Z,2.70
2023-01-02T02:56:58.075Z,2.70
2023-01-02T02:59:25.734Z,2.60
2023-01-02T03:01:53.596Z,2.83
2023-01-02T03:04:23.055Z,2.80
2023-01-02T03:07:02.913Z,2.60
2023-01-02T03:09:39.798Z,2.10
2023-01-02T03:17:43.708Z,2.37
2023-01-02T03:20:16.740Z,2.07
2023-01-02T03:22:57.471Z,2.73
2023-01-02T03:25:25.407Z,1.90
2023-01-02T03:27:57.219Z,2.20
2023-01-02T03:30:25.153Z,1.87
2023-01-02T03:41:11.763Z,3.00
2023-01-02T03:43:41.894Z,2.33
2023-01-02T03:46:15.812Z,2.50
2023-01-02T03:48:56.668Z,1.97
2023-01-02T03:51:24.088Z,2.53
2023-01-02T03:54:02.828Z,2.00
2023-01-02T03:56:45.479Z,2.83
2023-01-02T03:59:20.549Z,2.43
2023-01-02T04:07:28.244Z,2.43
2023-01-02T04:10:00.518Z,2.00
2023-01-02T04:12:38.067Z,2.37
2023-01-02T04:15:09.796Z,2.40
2023-01-02T04:17:42.105Z,1.83
2023-01-02T04:20:14.718Z,2.40
2023-01-02T04:22:48.781Z,2.33
2023-01-02T04:28:08.597Z,1.60
2023-01-02T04:30:42.983Z,2.60
2023-01-02T04:33:16.675Z,2.37
2023-01-02T04:35:44.438Z,3.13
2023-01-02T04:38:14.746Z,3.30
2023-01-02T04:40:42.298Z,2.77
2023-01-02T04:43:26.817Z,2.40
2023-01-02T04:54:12.509Z,2.63
2023-01-02T04:56:40.118Z,3.43
2023-01-02T04:59:07.872Z,3.07
2023-01-02T05:01:36.567Z,2.60
2023-01-02T05:04:04.187Z,2.33
2023-01-02T05:06:33.952Z,3.20
2023-01-02T05:09:01.281Z,2.20
2023-01-02T05:11:30.279Z,3.03
2023-01-02T05:19:04.896Z,2.83
2023-01-02T05:21:50.489Z,2.77
2023-01-02T05:24:17.825Z,2.50
2023-01-02T05:26:45.118Z,2.47
2023-01-02T05:29:12.721Z,2.77
2023-01-02T05:31:40.567Z,2.20
2023-01-02T05:34:14.278Z,1.97
2023-01-02T05:43:58.319Z,2.47
2023-01-02T05:46:25.934Z,2.03
2023-01-02T05:48:54.957Z,2.90
2023-01-02T05:51:22.139Z,2.03
2023-01-02T05:53:50.788Z,2.33
2023-01-02T05:56:20.757Z,3.03
2023-01-02T05:58:49.309Z,2.27
2023-01-02T06:01:19.862Z,2.73
2023-01-02T06:08:54.018Z,2.67
2023-01-02T06:11:21.477Z,2.80
2023-01-02T06:13:50.135Z,1.97
2023-01-02T06:16:17.818Z,2.50
2023-01-02T06:18:45.327Z,2.37
2023-01-02T06:21:14.793Z,2.93
2023-01-02T06:23:43.827Z,3.17
2023-01-02T06:31:32.805Z,1.90
2023-01-02T06:34:01.903Z,2.20
2023-01-02T06:36:32.697Z,2.80
2023-01-02T06:39:00.345Z,2.83
2023-01-02T06:41:27.581Z,2.07
2023-01-02T06:43:55.056Z,4.10
2023-01-02T06:46:24.177Z,3.10
2023-01-02T06:48:52.417Z,3.17
2023-01-02T06:56:24.270Z,2.87
2023-01-02T06:58:54.102Z,2.20
2023-01-02T07:01:24.424Z,3.10
2023-01-02T07:03:55.359Z,2.80
2023-01-02T07:06:23.418Z,1.97
2023-01-02T07:08:51.445Z,3.00
2023-01-02T07:11:20.525Z,2.47
2023-01-02T07:18:55.220Z,2.33
2023-01-02T07:21:22.620Z,2.70
2023-01-02T07:23:50.084Z,2.83
2023-01-02T07:26:20.380Z,2.67
2023-01-02T07:28:48.009Z,2.67
2023-01-02T07:31:18.783Z,2.30
2023-01-02T07:33:47.487Z,2.63
2023-01-02T07:36:22.100Z,3.10
2023-01-02T07:43:52.226Z,2.13
2023-01-02T07:46:20.628Z,3.17
2023-01-02T07:48:48.249Z,2.53
2023-01-02T07:51:21.086Z,2.83
2023-01-02T07:53:54.589Z,2.40
2023-01-02T07:56:22.078Z,2.90
2023-01-02T07:58:51.798Z,2.63
2023-01-02T08:06:24.976Z,2.43
2023-01-02T08:08:56.077Z,2.60
2023-01-02T08:11:24.515Z,2.50
2023-01-02T08:13:53.129Z,3.03
2023-01-02T08:16:22.765Z,2.63
2023-01-02T08:18:54.958Z,1.93
2023-01-02T08:21:25.825Z,2.27
2023-01-02T08:29:01.684Z,3.23
2023-01-02T08:31:28.901Z,2.20
2023-01-02T08:33:58.395Z,2.87
2023-01-02T08:36:29.009Z,3.20
2023-01-02T08:39:05.500Z,3.10
2023-01-02T08:41:35.890Z,2.53
2023-01-02T08:44:09.030Z,2.73
2023-01-02T08:46:43.055Z,2.33
2023-01-02T08:49:14.366Z,2.53
2023-01-02T08:57:00.857Z,2.93
2023-01-02T08:59:29.135Z,2.37
2023-01-02T09:01:57.133Z,2.73
2023-01-02T09:04:25.109Z,2.47
2023-01-02T09:06:53.546Z,3.07
2023-01-02T09:09:21.035Z,2.87
2023-01-02T09:11:50.996Z,3.07
2023-01-02T09:17:25.467Z,2.70
2023-01-02T09:20:09.740Z,3.60
2023-01-02T09:22:41.312Z,3.13
2023-01-02T09:25:24.118Z,3.70
2023-01-02T09:28:09.540Z,2.70
2023-01-02T09:30:40.250Z,1.83
2023-01-02T09:33:09.919Z,3.20
2023-01-02T09:35:37.617Z,2.57
2023-01-02T09:42:19.768Z,2.60
2023-01-02T09:44:54.828Z,3.20
2023-01-02T09:47:32.937Z,3.10
2023-01-02T09:50:03.813Z,2.67
2023-01-02T09:52:35.037Z,2.07
2023-01-02T09:55:03.490Z,3.10
2023-01-02T09:57:41.293Z,2.43
2023-01-02T10:03:30.499Z,2.70
2023-01-02T10:06:08.759Z,2.20
2023-01-02T10:08:48.826Z,2.07
2023-01-02T10:11:41.128Z,3.30
2023-01-02T10:14:19.991Z,3.10
2023-01-02T10:16:52.609Z,2.53
2023-01-02T10:27:19.497Z,4.50
2023-01-02T10:29:52.093Z,2.80
2023-01-02T10:32:21.453Z,2.83
2023-01-02T10:35:00.984Z,2.93
2023-01-02T10:37:28.517Z,3.83
2023-01-02T10:39:56.793Z,3.40
2023-01-02T10:42:26.155Z,3.60
2023-01-02T10:44:56.098Z,2.77
2023-01-02T10:50:43.587Z,2.87
2023-01-02T10:53:21.123Z,3.00
2023-01-02T10:55:49.551Z,2.97
2023-01-02T10:58:22.141Z,2.47
2023-01-02T11:00:51.387Z,2.87
2023-01-02T11:03:23.283Z,3.17
2023-01-02T11:05:55.147Z,3.53
2023-01-02T11:14:12.556Z,3.63
2023-01-02T11:16:41.774Z,3.33
2023-01-02T11:19:24.007Z,2.70
2023-01-02T11:21:57.050Z,3.17
2023-01-02T11:24:28.093Z,2.87
2023-01-02T11:27:01.863Z,3.30
2023-01-02T11:29:33.247Z,3.00
2023-01-02T11:37:13.408Z,2.83
2023-01-02T11:39:59.377Z,2.40
2023-01-02T11:42:51.242Z,2.67
2023-01-02T11:45:20.731Z,3.10
2023-01-02T11:47:50.231Z,2.67
2023-01-02T11:50:27.228Z,3.37
2023-01-02T11:56:19.236Z,2.60
2023-01-02T11:58:51.895Z,2.30
2023-01-02T12:01:31.264Z,2.33
2023-01-02T12:04:03.053Z,2.83
2023-01-02T12:06:48.827Z,2.20
2023-01-02T12:09:29.130Z,2.50
2023-01-02T12:17:37.673Z,3.30
2023-01-02T12:20:17.006Z,1.93
2023-01-02T12:23:07.877Z,2.40
2023-01-02T12:25:57.175Z,2.90
2023-01-02T12:29:02.648Z,2.07
2023-01-02T12:32:06.022Z,2.77
2023-01-02T12:38:11.171Z,2.23
2023-01-02T12:40:53.272Z,2.03
2023-01-02T12:43:57.247Z,2.50
2023-01-02T12:46:48.349Z,2.67
2023-01-02T12:49:38.145Z,2.30
2023-01-02T12:52:13.731Z,2.67
2023-01-02T12:54:56.827Z,2.87
2023-01-02T13:01:05.829Z,2.50
2023-01-02T13:03:45.188Z,2.13
2023-01-02T13:06:45.813Z,2.53
2023-01-02T13:09:20.059Z,2.67
2023-01-02T13:11:56.359Z,2.77
2023-01-02T13:14:31.208Z,3.00
2023-01-02T13:20:14.210Z,3.13
2023-01-02T13:22:55.018Z,2.60
2023-01-02T13:25:24.861Z,2.33
2023-01-02T13:27:56.227Z,2.73
2023-01-02T13:30:46.675Z,2.77
2023-01-02T13:33:29.442Z,3.17
2023-01-02T13:42:12.813Z,2.67
2023-01-02T13:44:47.049Z,2.73
2023-01-02T13:47:25.715Z,3.00
2023-01-02T13:50:02.013Z,3.10
2023-01-02T13:52:31.031Z,3.10
2023-01-02T13:55:35.637Z,3.07
2023-01-02T14:03:23.861Z,2.10
2023-01-02T14:06:00.134Z,1.90
2023-01-02T14:08:31.692Z,2.13
2023-01-02T14:11:15.018Z,2.37
2023-01-02T14:13:53.220Z,2.80
2023-01-02T14:16:56.358Z,3.27
2023-01-02T14:33:37.211Z,2.17
2023-01-02T14:36:08.619Z,2.00
2023-01-02T14:38:42.247Z,2.13
2023-01-02T14:41:33.218Z,1.13
2023-01-02T14:44:02.277Z,1.40
2023-01-02T14:46:33.674Z,1.10
2023-01-02T14:49:25.708Z,1.10
2023-01-02T14:54:54.214Z,1.00
2023-01-02T14:57:29.638Z,0.80
2023-01-02T15:00:00.262Z,0.90
2023-01-02T15:02:42.691Z,0.73
2023-01-02T15:05:22.197Z,0.87
2023-01-02T15:07:58.313Z,0.50
2023-01-02T15:10:26.867Z,0.80
2023-01-02T15:13:07.026Z,0.90
2023-01-02T15:19:58.626Z,1.17
2023-01-02T15:22:30.518Z,1.03
2023-01-02T15:24:58.386Z,1.23
2023-01-02T15:27:30.726Z,1.03
2023-01-02T15:30:01.944Z,0.70
2023-01-02T15:32:36.486Z,0.83
2023-01-02T15:35:23.217Z,0.70
2023-01-02T15:41:02.757Z,0.90
2023-01-02T15:43:58.190Z,0.80
2023-01-02T15:46:26.679Z,1.00
2023-01-02T15:48:57.373Z,1.20
2023-01-02T15:51:39.640Z,1.37
2023-01-02T15:54:18.164Z,1.03
2023-01-02T15:56:56.458Z,1.03
2023-01-02T15:59:27.155Z,1.30
2023-01-02T16:06:33.649Z,0.97
2023-01-02T16:09:07.744Z,1.10
2023-01-02T16:11:47.111Z,0.70
2023-01-02T16:14:21.886Z,0.93
2023-01-02T16:16:53.822Z,1.40
2023-01-02T16:19:39.321Z,1.00
2023-01-02T16:22:23.510Z,1.13
2023-01-02T16:32:27.292Z,1.07
2023-01-02T16:35:05.845Z,1.13
2023-01-02T16:37:36.269Z,1.20
2023-01-02T16:41:01.909Z,1.13
2023-01-02T16:43:34.420Z,1.30
2023-01-02T16:46:12.002Z,1.10
2023-01-02T16:52:04.215Z,1.20
2023-01-02T16:54:34.357Z,1.10
2023-01-02T16:57:06.551Z,1.33
2023-01-02T16:59:40.637Z,0.90
2023-01-02T17:02:15.327Z,1.20
2023-01-02T17:04:47.647Z,1.60
2023-01-02T17:07:28.906Z,1.40
2023-01-02T17:10:00.474Z,1.10
2023-01-02T17:17:42.579Z,1.00
2023-01-02T17:20:16.781Z,1.20
2023-01-02T17:22:45.879Z,1.40
2023-01-02T17:25:16.588Z,1.40
2023-01-02T17:27:53.918Z,1.30
2023-01-02T17:30:23.166Z,1.40
2023-01-02T17:32:57.371Z,1.20
2023-01-02T17:35:30.743Z,0.83
2023-01-02T17:40:45.047Z,1.33
2023-01-02T17:43:14.689Z,1.10
2023-01-02T17:45:47.845Z,1.10
2023-01-02T17:48:23.931Z,1.47
2023-01-02T17:50:53.315Z,0.80
2023-01-02T17:53:22.543Z,1.53
2023-01-02T17:56:20.787Z,0.90
2023-01-02T18:03:58.619Z,1.20
2023-01-02T18:06:29.029Z,1.30
2023-01-02T18:09:00.067Z,1.30
2023-01-02T18:11:30.340Z,1.20
2023-01-02T18:13:58.473Z,0.97
2023-01-02T18:16:32.910Z,1.47
2023-01-02T18:19:04.816Z,1.33
2023-01-02T18:24:33.670Z,1.40
2023-01-02T18:27:14.596Z,0.97
2023-01-02T18:29:48.238Z,1.17
2023-01-02T18:32:19.304Z,1.53
2023-01-02T18:34:56.029Z,1.20
2023-01-02T18:37:28.880Z,1.20
2023-01-02T18:40:00.820Z,1.13
2023-01-02T18:47:40.685Z,0.90
2023-01-02T18:50:30.278Z,1.20
2023-01-02T18:53:07.548Z,0.87
2023-01-02T18:55:40.277Z,1.10
2023-01-02T18:58:35.849Z,1.20
2023-01-02T19:01:18.028Z,0.90
2023-01-02T19:03:48.840Z,0.80
2023-01-02T19:11:59.161Z,0.70
2023-01-02T19:14:40.057Z,1.07
2023-01-02T19:17:32.297Z,0.70
2023-01-02T19:20:06.177Z,1.27
2023-01-02T19:22:40.462Z,0.83
2023-01-02T19:25:21.228Z,0.60
2023-01-02T19:28:08.267Z,0.90
2023-01-02T19:35:58.557Z,0.97
2023-01-02T19:38:28.643Z,0.70
2023-01-02T19:41:02.013Z,0.70
2023-01-02T19:43:33.116Z,0.93
2023-01-02T19:46:03.064Z,0.90
2023-01-02T19:48:34.646Z,0.70
2023-01-02T19:51:07.513Z,0.70
2023-01-02T19:53:41.382Z,0.80
2023-01-02T20:01:02.348Z,0.83
2023-01-02T20:03:30.086Z,0.90
2023-01-02T20:07:05.640Z,1.10
2023-01-02T20:09:39.735Z,0.80
2023-01-02T20:13:26.799Z,1.00
2023-01-02T20:20:33.875Z,0.97
2023-01-02T20:27:01.690Z,0.77
2023-01-02T20:40:33.383Z,1.33
2023-01-02T20:43:06.273Z,1.03
2023-01-02T20:45:36.249Z,0.90
2023-01-02T20:48:04.727Z,0.90
2023-01-02T20:50:33.298Z,1.23
2023-01-02T20:53:02.573Z,1.10
2023-01-02T20:55:31.063Z,1.03
2023-01-02T20:58:08.050Z,1.40
2023-01-02T21:16:39.212Z,0.77
2023-01-02T21:19:11.106Z,0.63
2023-01-02T21:21:38.457Z,0.90
2023-01-02T21:24:09.446Z,1.00
2023-01-02T21:26:38.141Z,1.00
2023-01-02T21:29:07.114Z,0.77
2023-01-02T21:31:38.939Z,0.90
2023-01-02T21:39:08.230Z,0.83
2023-01-02T21:41:55.756Z,1.43
2023-01-02T21:44:27.484Z,1.10
2023-01-02T21:46:55.993Z,0.63
2023-01-02T21:49:24.562Z,0.60
2023-01-02T21:51:52.815Z,0.63
2023-01-02T21:54:32.548Z,0.73
2023-01-02T21:57:02.064Z,0.90
2023-01-02T22:04:35.357Z,1.00
2023-01-02T22:07:30.737Z,1.20
2023-01-02T22:09:53.426Z,0.80
2023-01-02T22:12:20.987Z,0.80
2023-01-02T22:14:48.345Z,1.03
2023-01-02T22:17:17.014Z,0.83
2023-01-02T22:19:45.671Z,0.83
2023-01-02T22:22:15.667Z,1.30
2023-01-02T22:30:33.120Z,0.97
2023-01-02T22:32:43.964Z,1.03
2023-01-02T22:35:12.879Z,0.87
2023-01-02T22:37:41.397Z,0.80
2023-01-02T22:40:10.674Z,1.27
2023-01-02T22:43:03.478Z,1.00
2023-01-02T22:45:40.950Z,0.93
2023-01-02T22:51:08.456Z,0.90
2023-01-02T22:53:37.928Z,1.20
2023-01-02T22:56:13.298Z,1.07
2023-01-02T22:58:41.368Z,1.10
2023-01-02T23:01:13.904Z,1.37
2023-01-02T23:03:43.559Z,0.80
2023-01-02T23:06:21.935Z,1.53
2023-01-02T23:14:44.576Z,1.13
2023-01-02T23:17:30.326Z,0.80
2023-01-02T23:20:00.960Z,1.23
2023-01-02T23:22:29.815Z,1.03
2023-01-02T23:24:57.909Z,2.03
2023-01-02T23:27:25.435Z,1.20
2023-01-02T23:29:55.230Z,1.63
2023-01-02T23:39:12.940Z,0.90
2023-01-02T23:41:41.744Z,1.30
2023-01-02T23:44:14.770Z,1.13
2023-01-02T23:46:46.436Z,0.93
2023-01-02T23:49:15.665Z,0.80
2023-01-02T23:51:45.679Z,2.03
2023-01-02T23:54:16.013Z,1.00
2023-01-02T23:59:26.075Z,0.90
